createdAt,value
2022-08-25T00:00:48.359Z,15.59
2022-08-25T00:01:48.369Z,15.60
2022-08-25T00:02:56.064Z,15.62
2022-08-25T00:03:48.370Z,15.62
2022-08-25T00:04:53.813Z,15.62
2022-08-25T00:05:48.507Z,15.63
2022-08-25T00:06:48.220Z,15.65
2022-08-25T00:07:48.379Z,15.63
2022-08-25T00:08:48.225Z,15.65
2022-08-25T00:09:48.175Z,15.65
2022-08-25T00:11:03.023Z,15.66
2022-08-25T00:11:48.224Z,15.66
2022-08-25T00:12:48.214Z,15.67
2022-08-25T00:13:48.126Z,15.67
2022-08-25T00:14:48.226Z,15.67
2022-08-25T00:15:48.430Z,15.65
2022-08-25T00:16:48.292Z,15.66
2022-08-25T00:17:48.076Z,15.67
2022-08-25T00:18:48.217Z,15.66
2022-08-25T00:19:48.079Z,15.66
2022-08-25T00:20:48.959Z,15.66
2022-08-25T00:21:48.141Z,15.65
2022-08-25T00:22:48.229Z,15.67
2022-08-25T00:23:48.071Z,15.67
2022-08-25T00:24:48.220Z,15.69
2022-08-25T00:25:48.050Z,15.70
2022-08-25T00:26:48.279Z,15.67
2022-08-25T00:27:48.050Z,15.66
2022-08-25T00:28:47.919Z,15.66
2022-08-25T00:29:48.069Z,15.65
2022-08-25T00:30:47.962Z,15.63
2022-08-25T00:31:48.074Z,15.62
2022-08-25T00:32:55.081Z,15.59
2022-08-25T00:33:48.074Z,15.60
2022-08-25T00:34:47.914Z,15.59
2022-08-25T00:35:47.848Z,15.63
2022-08-25T00:36:47.914Z,15.60
2022-08-25T00:37:48.075Z,15.59
2022-08-25T00:38:47.914Z,15.59
2022-08-25T00:39:47.829Z,15.62
2022-08-25T00:40:47.895Z,15.60
2022-08-25T00:41:47.804Z,15.57
2022-08-25T00:42:47.918Z,15.60
2022-08-25T00:43:47.759Z,15.60
2022-08-25T00:44:47.720Z,15.63
2022-08-25T00:45:47.739Z,15.60
2022-08-25T00:46:47.693Z,15.59
2022-08-25T00:47:47.800Z,15.59
2022-08-25T00:48:47.670Z,15.55
2022-08-25T00:49:47.738Z,15.52
2022-08-25T00:50:47.909Z,15.51
2022-08-25T00:51:47.759Z,15.48
2022-08-25T00:52:47.659Z,15.48
2022-08-25T00:53:47.754Z,15.44
2022-08-25T00:54:47.598Z,15.44
2022-08-25T00:55:47.745Z,15.44
2022-08-25T00:56:47.573Z,15.43
2022-08-25T00:57:47.604Z,15.37
2022-08-25T00:58:47.593Z,15.39
2022-08-25T00:59:47.733Z,15.39
2022-08-25T01:00:47.595Z,15.39
2022-08-25T01:01:47.826Z,15.43
2022-08-25T01:02:47.639Z,15.39
2022-08-25T01:03:47.804Z,15.43
2022-08-25T01:04:48.856Z,15.43
2022-08-25T01:05:47.441Z,15.48
2022-08-25T01:06:47.419Z,15.50
2022-08-25T01:07:47.415Z,15.52
2022-08-25T01:08:47.599Z,15.59
2022-08-25T01:09:47.479Z,15.66
2022-08-25T01:10:47.358Z,15.70
2022-08-25T01:11:47.429Z,15.75
2022-08-25T01:12:47.587Z,15.80
2022-08-25T01:13:47.429Z,15.85
2022-08-25T01:14:47.640Z,15.91
2022-08-25T01:15:47.477Z,15.92
2022-08-25T01:16:50.939Z,16.02
2022-08-25T01:17:47.424Z,16.06
2022-08-25T01:18:47.265Z,16.08
2022-08-25T01:19:47.754Z,16.13
2022-08-25T01:20:47.272Z,16.16
2022-08-25T01:21:47.437Z,16.17
2022-08-25T01:22:47.967Z,16.18
2022-08-25T01:23:47.423Z,16.22
2022-08-25T01:24:47.274Z,16.24
2022-08-25T01:25:47.442Z,16.25
2022-08-25T01:26:47.273Z,16.25
2022-08-25T01:27:47.133Z,16.25
2022-08-25T01:28:47.259Z,16.26
2022-08-25T01:29:47.118Z,16.26
2022-08-25T01:30:47.284Z,16.24
2022-08-25T01:31:47.167Z,16.22
2022-08-25T01:32:47.269Z,16.17
2022-08-25T01:33:47.108Z,16.16
2022-08-25T01:34:47.031Z,16.13
2022-08-25T01:35:47.097Z,16.10
2022-08-25T01:36:47.268Z,16.09
2022-08-25T01:37:47.158Z,16.06
2022-08-25T01:38:46.968Z,16.06
2022-08-25T01:39:47.150Z,16.08
2022-08-25T01:40:46.972Z,16.09
2022-08-25T01:41:46.959Z,16.06
2022-08-25T01:42:46.932Z,16.08
2022-08-25T01:43:46.996Z,16.08
2022-08-25T01:44:46.932Z,16.06
2022-08-25T01:45:47.161Z,16.05
2022-08-25T01:46:46.953Z,16.05
2022-08-25T01:47:46.862Z,16.05
2022-08-25T01:48:46.933Z,16.03
2022-08-25T01:49:46.882Z,16.02
2022-08-25T01:50:46.938Z,15.96
2022-08-25T01:51:47.109Z,15.96
2022-08-25T01:52:46.959Z,15.92
2022-08-25T01:53:46.778Z,15.90
2022-08-25T01:54:46.838Z,15.84
2022-08-25T01:55:46.780Z,15.81
2022-08-25T01:56:46.938Z,15.76
2022-08-25T01:57:46.789Z,15.73
2022-08-25T01:58:46.718Z,15.70
2022-08-25T01:59:46.768Z,15.66
2022-08-25T02:00:47.008Z,15.65
2022-08-25T02:01:46.823Z,15.62
2022-08-25T02:02:46.710Z,15.63
2022-08-25T02:03:46.794Z,15.62
2022-08-25T02:04:46.653Z,15.59
2022-08-25T02:05:48.239Z,15.57
2022-08-25T02:06:46.682Z,15.55
2022-08-25T02:07:46.774Z,15.54
2022-08-25T02:08:46.612Z,15.52
2022-08-25T02:09:46.763Z,15.48
2022-08-25T02:10:46.603Z,15.48
2022-08-25T02:11:46.595Z,15.48
2022-08-25T02:12:46.633Z,15.48
2022-08-25T02:13:46.529Z,15.48
2022-08-25T02:14:46.618Z,15.45
2022-08-25T02:15:46.498Z,15.50
2022-08-25T02:16:46.735Z,15.50
2022-08-25T02:17:46.458Z,15.51
2022-08-25T02:18:46.448Z,15.55
2022-08-25T02:19:46.468Z,15.60
2022-08-25T02:20:46.617Z,15.65
2022-08-25T02:21:46.458Z,15.67
2022-08-25T02:22:53.117Z,15.70
2022-08-25T02:23:46.458Z,15.70
2022-08-25T02:24:46.370Z,15.70
2022-08-25T02:25:46.455Z,15.69
2022-08-25T02:26:46.354Z,15.70
2022-08-25T02:27:46.473Z,15.70
2022-08-25T02:28:46.373Z,15.66
2022-08-25T02:29:46.465Z,15.65
2022-08-25T02:30:46.360Z,15.59
2022-08-25T02:31:46.273Z,15.60
2022-08-25T02:32:46.293Z,15.57
2022-08-25T02:33:46.233Z,15.55
2022-08-25T02:34:46.383Z,15.51
2022-08-25T02:35:46.203Z,15.48
2022-08-25T02:36:46.321Z,15.45
2022-08-25T02:37:46.218Z,15.43
2022-08-25T02:38:46.307Z,15.43
2022-08-25T02:39:46.285Z,15.39
2022-08-25T02:40:46.298Z,15.41
2022-08-25T02:41:46.138Z,15.36
2022-08-25T02:42:46.138Z,15.36
2022-08-25T02:43:46.148Z,15.33
2022-08-25T02:44:46.308Z,15.33
2022-08-25T02:45:46.233Z,15.32
2022-08-25T02:46:46.067Z,15.32
2022-08-25T02:47:46.142Z,15.36
2022-08-25T02:48:46.043Z,15.36
2022-08-25T02:49:46.033Z,15.39
2022-08-25T02:50:46.373Z,15.37
2022-08-25T02:51:46.144Z,15.36
2022-08-25T02:52:46.023Z,15.35
2022-08-25T02:53:45.995Z,15.33
2022-08-25T02:54:45.993Z,15.30
2022-08-25T02:55:45.953Z,15.27
2022-08-25T02:56:46.062Z,15.26
2022-08-25T02:57:46.144Z,15.27
2022-08-25T02:58:46.009Z,15.23
2022-08-25T02:59:45.909Z,15.25
2022-08-25T03:00:46.030Z,15.19
2022-08-25T03:01:46.138Z,15.18
2022-08-25T03:02:46.067Z,15.15
2022-08-25T03:03:45.960Z,15.17
2022-08-25T03:04:46.042Z,15.17
2022-08-25T03:05:45.838Z,15.18
2022-08-25T03:06:45.988Z,15.22
2022-08-25T03:07:45.828Z,15.22
2022-08-25T03:08:45.833Z,15.25
2022-08-25T03:09:45.828Z,15.29
2022-08-25T03:10:45.754Z,15.36
2022-08-25T03:11:45.825Z,15.39
2022-08-25T03:12:45.993Z,15.37
2022-08-25T03:13:45.904Z,15.36
2022-08-25T03:14:45.994Z,15.45
2022-08-25T03:15:45.837Z,15.52
2022-08-25T03:16:46.512Z,15.54
2022-08-25T03:17:45.869Z,15.55
2022-08-25T03:18:45.673Z,15.57
2022-08-25T03:19:45.713Z,15.55
2022-08-25T03:20:45.654Z,15.51
2022-08-25T03:21:45.604Z,15.47
2022-08-25T03:22:45.658Z,15.44
2022-08-25T03:23:45.847Z,15.39
2022-08-25T03:24:45.649Z,15.35
2022-08-25T03:25:45.618Z,15.30
2022-08-25T03:26:45.662Z,15.26
2022-08-25T03:27:45.529Z,15.22
2022-08-25T03:28:45.508Z,15.18
2022-08-25T03:29:45.518Z,15.17
2022-08-25T03:30:45.668Z,15.12
2022-08-25T03:31:45.620Z,15.11
2022-08-25T03:32:45.461Z,15.11
2022-08-25T03:33:45.492Z,15.07
2022-08-25T03:34:45.433Z,15.05
2022-08-25T03:35:45.523Z,15.02
2022-08-25T03:36:45.724Z,14.99
2022-08-25T03:37:45.506Z,14.97
2022-08-25T03:38:45.678Z,14.94
2022-08-25T03:39:45.621Z,14.93
2022-08-25T03:40:45.383Z,14.92
2022-08-25T03:41:45.504Z,14.92
2022-08-25T03:42:45.425Z,14.92
2022-08-25T03:43:45.482Z,14.89
2022-08-25T03:44:45.354Z,14.86
2022-08-25T03:45:45.566Z,14.86
2022-08-25T03:46:45.349Z,14.85
2022-08-25T03:47:45.268Z,14.86
2022-08-25T03:48:45.409Z,14.85
2022-08-25T03:49:45.508Z,14.82
2022-08-25T03:50:51.624Z,14.81
2022-08-25T03:51:45.208Z,14.81
2022-08-25T03:52:45.348Z,14.79
2022-08-25T03:53:45.248Z,14.79
2022-08-25T03:54:45.168Z,14.78
2022-08-25T03:55:45.188Z,14.78
2022-08-25T03:56:45.330Z,14.78
2022-08-25T03:57:45.183Z,14.74
2022-08-25T03:58:45.353Z,14.74
2022-08-25T03:59:45.242Z,14.74
2022-08-25T04:00:45.445Z,14.73
2022-08-25T04:01:45.227Z,14.71
2022-08-25T04:02:45.137Z,14.74
2022-08-25T04:03:45.174Z,14.73
2022-08-25T04:04:45.044Z,14.77
2022-08-25T04:05:45.093Z,14.73
2022-08-25T04:06:45.016Z,14.73
2022-08-25T04:07:44.998Z,14.74
2022-08-25T04:08:45.084Z,14.74
2022-08-25T04:09:44.998Z,14.73
2022-08-25T04:10:45.028Z,14.74
2022-08-25T04:11:45.270Z,14.73
2022-08-25T04:12:45.018Z,14.71
2022-08-25T04:13:44.908Z,14.73
2022-08-25T04:14:45.028Z,14.74
2022-08-25T04:15:44.898Z,14.77
2022-08-25T04:16:44.940Z,14.77
2022-08-25T04:17:44.929Z,14.79
2022-08-25T04:18:45.012Z,14.81
2022-08-25T04:19:44.867Z,14.85
2022-08-25T04:20:46.904Z,14.87
2022-08-25T04:21:44.874Z,14.93
2022-08-25T04:22:45.278Z,14.94
2022-08-25T04:23:44.925Z,14.97
2022-08-25T04:24:45.023Z,15.02
2022-08-25T04:25:46.109Z,15.08
2022-08-25T04:26:44.757Z,15.14
2022-08-25T04:27:44.852Z,15.18
2022-08-25T04:28:44.734Z,15.25
2022-08-25T04:29:44.934Z,15.30
2022-08-25T04:30:46.409Z,15.35
2022-08-25T04:31:44.765Z,15.39
2022-08-25T04:32:44.717Z,15.43
2022-08-25T04:33:44.877Z,15.48
2022-08-25T04:34:44.699Z,15.51
2022-08-25T04:35:44.921Z,15.54
2022-08-25T04:36:44.698Z,15.55
2022-08-25T04:37:44.599Z,15.59
2022-08-25T04:38:44.697Z,15.59
2022-08-25T04:39:44.659Z,15.57
2022-08-25T04:40:44.769Z,15.59
2022-08-25T04:41:44.539Z,15.63
2022-08-25T04:42:44.691Z,15.62
2022-08-25T04:43:44.549Z,15.65
2022-08-25T04:44:44.514Z,15.69
2022-08-25T04:45:44.983Z,15.72
2022-08-25T04:46:44.700Z,15.75
2022-08-25T04:47:44.534Z,15.80
2022-08-25T04:48:44.444Z,15.81
2022-08-25T04:49:44.436Z,15.85
2022-08-25T04:50:44.413Z,15.91
2022-08-25T04:51:44.614Z,15.98
2022-08-25T04:52:44.694Z,16.00
2022-08-25T04:53:44.523Z,16.05
2022-08-25T04:54:44.373Z,16.09
2022-08-25T04:55:44.337Z,16.16
2022-08-25T04:56:44.459Z,16.16
2022-08-25T04:57:44.548Z,16.16
2022-08-25T04:58:44.368Z,16.17
2022-08-25T04:59:44.309Z,16.21
2022-08-25T05:00:44.421Z,16.21
2022-08-25T05:01:44.349Z,16.25
2022-08-25T05:02:44.378Z,16.28
2022-08-25T05:03:44.528Z,16.31
2022-08-25T05:04:44.447Z,16.31
2022-08-25T05:05:44.218Z,16.31
2022-08-25T05:06:44.368Z,16.31
2022-08-25T05:07:44.300Z,16.34
2022-08-25T05:08:45.794Z,16.34
2022-08-25T05:09:44.223Z,16.40
2022-08-25T05:10:44.173Z,16.41
2022-08-25T05:11:44.214Z,16.43
2022-08-25T05:12:44.212Z,16.43
2022-08-25T05:13:44.215Z,16.46
2022-08-25T05:14:44.104Z,16.49
2022-08-25T05:15:44.223Z,16.54
2022-08-25T05:16:44.094Z,16.51
2022-08-25T05:17:44.054Z,16.57
2022-08-25T05:18:44.123Z,16.59
2022-08-25T05:19:44.048Z,16.61
2022-08-25T05:20:44.077Z,16.66
2022-08-25T05:21:43.998Z,16.72
2022-08-25T05:22:44.058Z,16.69
2022-08-25T05:23:43.989Z,16.74
2022-08-25T05:24:44.129Z,16.73
2022-08-25T05:25:44.208Z,16.72
2022-08-25T05:26:44.078Z,16.69
2022-08-25T05:27:43.940Z,16.69
2022-08-25T05:28:43.909Z,16.74
2022-08-25T05:29:43.950Z,16.74
2022-08-25T05:30:44.074Z,16.77
2022-08-25T05:31:48.288Z,16.82
2022-08-25T05:32:43.883Z,16.84
2022-08-25T05:33:43.894Z,16.87
2022-08-25T05:34:44.123Z,16.91
2022-08-25T05:35:43.894Z,16.92
2022-08-25T05:36:48.640Z,16.99
2022-08-25T05:37:43.926Z,17.12
2022-08-25T05:38:43.805Z,17.27
2022-08-25T05:39:43.933Z,17.41
2022-08-25T05:40:43.836Z,17.69
2022-08-25T05:41:43.755Z,18.15
2022-08-25T05:42:43.762Z,18.83
2022-08-25T05:43:43.930Z,19.42
2022-08-25T05:44:43.772Z,19.79
2022-08-25T05:45:44.100Z,19.85
2022-08-25T05:46:43.762Z,19.59
2022-08-25T05:47:43.921Z,19.41
2022-08-25T05:48:43.761Z,19.17
2022-08-25T05:49:43.921Z,18.92
2022-08-25T05:50:43.761Z,18.64
2022-08-25T05:51:43.672Z,18.43
2022-08-25T05:52:43.601Z,18.23
2022-08-25T05:53:43.616Z,18.05
2022-08-25T05:54:43.585Z,17.91
2022-08-25T05:55:43.606Z,17.84
2022-08-25T05:56:43.827Z,17.79
2022-08-25T05:57:43.606Z,17.78
2022-08-25T05:58:43.537Z,17.72
2022-08-25T05:59:43.607Z,17.73
2022-08-25T06:00:43.819Z,17.72
2022-08-25T06:01:45.241Z,17.71
2022-08-25T06:02:43.778Z,17.71
2022-08-25T06:03:43.646Z,17.72
2022-08-25T06:04:43.451Z,17.73
2022-08-25T06:05:43.601Z,17.76
2022-08-25T06:06:43.442Z,17.75
2022-08-25T06:07:43.481Z,17.72
2022-08-25T06:08:43.451Z,17.68
2022-08-25T06:09:43.602Z,17.68
2022-08-25T06:10:43.442Z,17.71
2022-08-25T06:11:43.613Z,17.73
2022-08-25T06:12:43.432Z,17.75
2022-08-25T06:13:43.381Z,17.78
2022-08-25T06:14:43.454Z,17.79
2022-08-25T06:15:43.318Z,17.76
2022-08-25T06:16:43.343Z,17.76
2022-08-25T06:17:43.289Z,17.73
2022-08-25T06:18:43.517Z,17.73
2022-08-25T06:19:43.286Z,17.76
2022-08-25T06:20:43.236Z,17.79
2022-08-25T06:21:43.285Z,17.80
2022-08-25T06:22:43.436Z,17.86
2022-08-25T06:23:43.357Z,17.93
2022-08-25T06:24:43.178Z,17.94
2022-08-25T06:25:43.286Z,17.95
2022-08-25T06:26:43.172Z,18.02
2022-08-25T06:27:43.292Z,18.05
2022-08-25T06:28:43.202Z,18.09
2022-08-25T06:29:43.132Z,18.16
2022-08-25T06:30:43.125Z,18.26
2022-08-25T06:31:43.351Z,18.33
2022-08-25T06:32:43.121Z,18.39
2022-08-25T06:33:43.271Z,18.48
2022-08-25T06:34:43.202Z,18.57
2022-08-25T06:35:43.031Z,18.67
2022-08-25T06:36:43.122Z,18.81
2022-08-25T06:37:43.017Z,19.05
2022-08-25T06:38:43.126Z,19.48
2022-08-25T06:39:43.285Z,19.99
2022-08-25T06:40:43.206Z,21.00
2022-08-25T06:41:42.968Z,22.26
2022-08-25T06:42:42.956Z,23.29
2022-08-25T06:43:47.993Z,24.09
2022-08-25T06:44:43.129Z,24.61
2022-08-25T06:45:42.967Z,25.14
2022-08-25T06:46:43.240Z,25.26
2022-08-25T06:47:42.967Z,25.44
2022-08-25T06:48:42.872Z,25.74
2022-08-25T06:49:42.973Z,25.91
2022-08-25T06:50:43.133Z,26.16
2022-08-25T06:51:42.952Z,26.33
2022-08-25T06:52:42.875Z,26.31
2022-08-25T06:53:42.884Z,26.55
2022-08-25T06:54:42.809Z,26.88
2022-08-25T06:55:42.956Z,26.61
2022-08-25T06:56:42.792Z,25.83
2022-08-25T06:57:42.962Z,24.97
2022-08-25T06:58:42.872Z,24.10
2022-08-25T06:59:42.738Z,23.58
2022-08-25T07:00:42.894Z,23.20
2022-08-25T07:01:42.825Z,23.02
2022-08-25T07:02:42.882Z,22.91
2022-08-25T07:03:42.677Z,22.93
2022-08-25T07:04:42.736Z,22.78
2022-08-25T07:05:43.932Z,22.55
2022-08-25T07:06:42.627Z,22.15
2022-08-25T07:07:43.887Z,21.74
2022-08-25T07:08:42.797Z,21.48
2022-08-25T07:09:42.652Z,21.28
2022-08-25T07:10:42.651Z,21.11
2022-08-25T07:11:42.678Z,20.98
2022-08-25T07:12:42.561Z,20.86
2022-08-25T07:13:42.652Z,20.85
2022-08-25T07:14:53.399Z,20.85
2022-08-25T07:15:42.633Z,20.93
2022-08-25T07:16:48.534Z,21.01
2022-08-25T07:17:42.482Z,21.11
2022-08-25T07:18:42.472Z,21.22
2022-08-25T07:19:42.476Z,21.40
2022-08-25T07:20:42.487Z,21.63
2022-08-25T07:21:42.507Z,21.63
2022-08-25T07:22:42.488Z,21.63
2022-08-25T07:23:42.647Z,21.69
2022-08-25T07:24:42.486Z,21.69
2022-08-25T07:25:42.408Z,21.70
2022-08-25T07:26:42.477Z,21.74
2022-08-25T07:27:42.728Z,21.75
2022-08-25T07:28:47.133Z,21.89
2022-08-25T07:29:42.653Z,21.96
2022-08-25T07:30:42.342Z,22.04
2022-08-25T07:31:42.395Z,22.07
2022-08-25T07:32:43.097Z,22.04
2022-08-25T07:33:42.413Z,22.06
2022-08-25T07:34:42.482Z,22.06
2022-08-25T07:35:43.602Z,22.08
2022-08-25T07:36:42.232Z,22.18
2022-08-25T07:37:49.307Z,22.36
2022-08-25T07:38:42.472Z,22.49
2022-08-25T07:39:42.404Z,22.84
2022-08-25T07:40:42.768Z,23.28
2022-08-25T07:41:42.327Z,24.03
2022-08-25T07:42:42.167Z,24.21
2022-08-25T07:43:42.157Z,24.10
2022-08-25T07:44:43.374Z,24.09
2022-08-25T07:45:49.245Z,24.22
2022-08-25T07:46:42.610Z,25.04
2022-08-25T07:47:42.336Z,24.82
2022-08-25T07:48:42.168Z,24.74
2022-08-25T07:49:42.326Z,24.82
2022-08-25T07:50:42.172Z,24.97
2022-08-25T07:52:04.252Z,25.18
2022-08-25T07:52:42.161Z,25.39
2022-08-25T07:53:42.002Z,25.40
2022-08-25T07:54:41.992Z,24.97
2022-08-25T07:55:42.003Z,24.85
2022-08-25T07:56:42.163Z,24.71
2022-08-25T07:57:42.111Z,24.77
2022-08-25T07:58:42.182Z,24.82
2022-08-25T07:59:42.002Z,25.73
2022-08-25T08:00:42.301Z,27.10
2022-08-25T08:01:42.078Z,28.15
2022-08-25T08:02:41.933Z,28.35
2022-08-25T08:03:50.324Z,28.56
2022-08-25T08:04:42.178Z,28.92
2022-08-25T08:05:42.006Z,28.78
2022-08-25T08:06:41.836Z,29.05
2022-08-25T08:07:43.783Z,29.43
2022-08-25T08:08:41.847Z,29.64
2022-08-25T08:09:42.097Z,30.10
2022-08-25T08:11:04.113Z,29.92
2022-08-25T08:11:50.491Z,30.16
2022-08-25T08:12:41.844Z,30.48
2022-08-25T08:13:42.001Z,30.92
2022-08-25T08:14:44.883Z,31.07
2022-08-25T08:15:41.792Z,31.57
2022-08-25T08:16:41.831Z,31.51
2022-08-25T08:17:41.691Z,31.72
2022-08-25T08:18:41.841Z,31.74
2022-08-25T08:19:44.876Z,31.89
2022-08-25T08:20:42.574Z,31.77
2022-08-25T08:21:41.685Z,31.33
2022-08-25T08:22:41.636Z,30.91
2022-08-25T08:23:41.677Z,30.96
2022-08-25T08:24:44.735Z,30.62
2022-08-25T08:25:41.756Z,30.89
2022-08-25T08:26:58.142Z,30.59
2022-08-25T08:27:41.686Z,30.99
2022-08-25T08:28:41.568Z,31.39
2022-08-25T08:29:41.693Z,30.93
2022-08-25T08:30:52.738Z,31.47
2022-08-25T08:31:41.604Z,31.95
2022-08-25T08:33:06.313Z,32.24
2022-08-25T08:33:41.492Z,32.20
2022-08-25T08:34:41.532Z,32.45
2022-08-25T08:35:41.472Z,32.07
2022-08-25T08:36:41.601Z,32.34
2022-08-25T08:37:41.421Z,32.67
2022-08-25T08:38:41.526Z,32.63
2022-08-25T08:39:41.697Z,32.04
2022-08-25T08:40:41.529Z,31.79
2022-08-25T08:42:09.518Z,31.10
2022-08-25T08:42:41.634Z,31.04
2022-08-25T08:43:41.367Z,30.89
2022-08-25T08:44:41.357Z,30.52
2022-08-25T08:45:43.973Z,30.13
2022-08-25T08:46:41.584Z,30.10
2022-08-25T08:47:41.364Z,30.14
2022-08-25T08:48:41.391Z,29.58
2022-08-25T08:49:41.351Z,29.58
2022-08-25T08:50:41.521Z,30.73
2022-08-25T08:51:41.362Z,31.26
2022-08-25T08:52:41.253Z,31.14
2022-08-25T08:53:42.022Z,31.44
2022-08-25T08:54:41.398Z,32.39
2022-08-25T08:55:41.351Z,32.60
2022-08-25T08:56:45.403Z,32.17
2022-08-25T08:57:41.431Z,31.85
2022-08-25T08:58:41.780Z,31.52
2022-08-25T08:59:41.167Z,30.32
2022-08-25T09:00:41.286Z,30.21
2022-08-25T09:01:41.434Z,31.02
2022-08-25T09:02:51.498Z,31.60
2022-08-25T09:03:41.189Z,31.85
2022-08-25T09:04:41.216Z,31.63
2022-08-25T09:05:46.289Z,30.96
2022-08-25T09:06:41.292Z,29.71
2022-08-25T09:07:42.144Z,28.97
2022-08-25T09:08:44.513Z,29.06
2022-08-25T09:09:41.137Z,28.90
2022-08-25T09:10:41.031Z,28.92
2022-08-25T09:11:41.041Z,28.92
2022-08-25T09:12:41.324Z,29.16
2022-08-25T09:13:41.052Z,29.57
2022-08-25T09:14:40.996Z,29.67
2022-08-25T09:15:41.429Z,29.07
2022-08-25T09:16:41.239Z,29.77
2022-08-25T09:17:41.047Z,30.83
2022-08-25T09:18:51.537Z,31.41
2022-08-25T09:19:42.022Z,31.26
2022-08-25T09:20:40.916Z,31.15
2022-08-25T09:21:40.897Z,31.10
2022-08-25T09:22:40.867Z,30.73
2022-08-25T09:23:41.121Z,29.71
2022-08-25T09:24:40.895Z,28.65
2022-08-25T09:25:53.336Z,28.70
2022-08-25T09:26:40.881Z,28.80
2022-08-25T09:27:41.042Z,29.55
2022-08-25T09:28:40.973Z,29.94
2022-08-25T09:29:40.792Z,30.36
2022-08-25T09:30:40.881Z,30.92
2022-08-25T09:31:40.825Z,31.62
2022-08-25T09:32:40.887Z,31.35
2022-08-25T09:33:41.047Z,30.78
2022-08-25T09:34:40.796Z,30.32
2022-08-25T09:35:40.757Z,29.87
2022-08-25T09:36:40.706Z,30.36
2022-08-25T09:37:40.715Z,31.02
2022-08-25T09:38:40.675Z,30.95
2022-08-25T09:39:40.786Z,30.86
2022-08-25T09:40:40.688Z,30.70
2022-08-25T09:41:40.722Z,30.73
2022-08-25T09:42:40.631Z,31.33
2022-08-25T09:43:40.721Z,32.08
2022-08-25T09:44:40.624Z,32.27
2022-08-25T09:45:40.651Z,32.45
2022-08-25T09:46:40.633Z,31.85
2022-08-25T09:47:40.582Z,32.05
2022-08-25T09:48:41.592Z,32.20
2022-08-25T09:49:40.720Z,32.57
2022-08-25T09:50:45.209Z,33.26
2022-08-25T09:51:42.812Z,32.49
2022-08-25T09:52:41.432Z,32.08
2022-08-25T09:53:40.726Z,32.44
2022-08-25T09:54:43.855Z,32.82
2022-08-25T09:55:40.465Z,33.19
2022-08-25T09:56:40.647Z,32.93
2022-08-25T09:57:40.435Z,32.34
2022-08-25T09:58:40.581Z,31.29
2022-08-25T09:59:40.420Z,30.67
2022-08-25T10:00:40.561Z,30.62
2022-08-25T10:01:40.422Z,30.61
2022-08-25T10:02:40.641Z,30.49
2022-08-25T10:03:40.402Z,30.10
2022-08-25T10:04:40.632Z,29.81
2022-08-25T10:05:40.401Z,29.53
2022-08-25T10:06:40.332Z,29.49
2022-08-25T10:07:40.406Z,29.43
2022-08-25T10:08:40.646Z,29.09
2022-08-25T10:09:40.406Z,28.92
2022-08-25T10:10:41.811Z,28.97
2022-08-25T10:11:40.406Z,28.86
2022-08-25T10:12:42.578Z,28.72
2022-08-25T10:13:40.461Z,28.71
2022-08-25T10:14:44.656Z,28.52
2022-08-25T10:15:40.242Z,28.06
2022-08-25T10:16:40.250Z,28.15
2022-08-25T10:17:40.422Z,27.86
2022-08-25T10:18:40.325Z,27.76
2022-08-25T10:19:40.181Z,27.76
2022-08-25T10:20:44.412Z,27.95
2022-08-25T10:21:40.406Z,28.12
2022-08-25T10:22:40.121Z,28.08
2022-08-25T10:23:40.181Z,28.10
2022-08-25T10:24:41.031Z,27.88
2022-08-25T10:25:40.260Z,27.76
2022-08-25T10:26:40.097Z,27.78
2022-08-25T10:27:40.085Z,27.64
2022-08-25T10:28:40.166Z,27.34
2022-08-25T10:29:40.918Z,27.35
2022-08-25T10:30:40.068Z,27.11
2022-08-25T10:31:41.487Z,26.93
2022-08-25T10:32:39.996Z,26.73
2022-08-25T10:33:40.076Z,26.88
2022-08-25T10:34:40.061Z,26.97
2022-08-25T10:35:40.082Z,26.86
2022-08-25T10:36:40.240Z,26.71
2022-08-25T10:37:40.081Z,26.67
2022-08-25T10:38:39.972Z,26.74
2022-08-25T10:39:40.739Z,26.64
2022-08-25T10:40:40.087Z,26.64
2022-08-25T10:41:39.895Z,26.59
2022-08-25T10:42:39.911Z,26.59
2022-08-25T10:43:39.876Z,26.67
2022-08-25T10:44:39.926Z,26.67
2022-08-25T10:45:39.918Z,26.56
2022-08-25T10:46:40.037Z,26.49
2022-08-25T10:47:39.826Z,26.34
2022-08-25T10:48:39.926Z,26.34
2022-08-25T10:49:39.786Z,26.53
2022-08-25T10:50:39.997Z,26.53
2022-08-25T10:51:39.766Z,26.48
2022-08-25T10:52:39.756Z,26.45
2022-08-25T10:53:39.762Z,26.59
2022-08-25T10:54:39.762Z,26.71
2022-08-25T10:55:40.488Z,26.68
2022-08-25T10:56:40.180Z,26.64
2022-08-25T10:57:39.770Z,26.59
2022-08-25T10:58:39.922Z,26.61
2022-08-25T10:59:39.641Z,26.82
2022-08-25T11:00:40.365Z,26.92
2022-08-25T11:01:44.058Z,27.20
2022-08-25T11:02:41.505Z,27.37
2022-08-25T11:03:39.766Z,27.28
2022-08-25T11:04:39.651Z,27.23
2022-08-25T11:05:39.820Z,27.23
2022-08-25T11:06:39.615Z,27.11
2022-08-25T11:07:39.546Z,26.88
2022-08-25T11:08:39.684Z,26.81
2022-08-25T11:09:40.184Z,26.82
2022-08-25T11:10:39.595Z,26.66
2022-08-25T11:11:39.511Z,26.59
2022-08-25T11:12:39.601Z,26.55
2022-08-25T11:13:39.480Z,26.45
2022-08-25T11:14:39.691Z,26.53
2022-08-25T11:15:41.470Z,26.33
2022-08-25T11:16:39.637Z,26.29
2022-08-25T11:17:39.440Z,26.37
2022-08-25T11:18:39.622Z,26.24
2022-08-25T11:19:39.430Z,26.15
2022-08-25T11:20:39.462Z,26.18
2022-08-25T11:21:39.366Z,26.10
2022-08-25T11:22:39.356Z,26.15
2022-08-25T11:23:39.446Z,26.08
2022-08-25T11:24:39.356Z,26.06
2022-08-25T11:25:39.448Z,25.99
2022-08-25T11:26:39.356Z,25.76
2022-08-25T11:27:39.276Z,25.66
2022-08-25T11:28:39.285Z,25.68
2022-08-25T11:29:39.607Z,25.78
2022-08-25T11:30:39.351Z,25.81
2022-08-25T11:31:39.251Z,25.92
2022-08-25T11:32:39.362Z,25.89
2022-08-25T11:33:39.210Z,25.83
2022-08-25T11:34:43.832Z,25.81
2022-08-25T11:35:39.181Z,25.86
2022-08-25T11:36:39.271Z,25.93
2022-08-25T11:37:39.229Z,26.01
2022-08-25T11:38:39.267Z,26.11
2022-08-25T11:39:39.127Z,26.22
2022-08-25T11:40:39.285Z,26.34
2022-08-25T11:41:39.126Z,26.27
2022-08-25T11:42:39.156Z,26.07
2022-08-25T11:43:40.567Z,26.06
2022-08-25T11:44:39.290Z,25.98
2022-08-25T11:45:39.134Z,26.18
2022-08-25T11:46:39.035Z,26.51
2022-08-25T11:47:39.117Z,26.82
2022-08-25T11:48:39.096Z,26.98
2022-08-25T11:49:39.253Z,27.15
2022-08-25T11:50:39.271Z,27.26
2022-08-25T11:51:38.981Z,27.43
2022-08-25T11:52:38.963Z,27.72
2022-08-25T11:53:38.961Z,27.64
2022-08-25T11:54:39.031Z,27.66
2022-08-25T11:55:39.120Z,27.71
2022-08-25T11:56:40.211Z,27.79
2022-08-25T11:57:38.891Z,27.76
2022-08-25T11:58:38.966Z,27.78
2022-08-25T11:59:38.867Z,28.00
2022-08-25T12:00:39.056Z,28.19
2022-08-25T12:01:39.127Z,28.03
2022-08-25T12:02:38.975Z,27.86
2022-08-25T12:03:38.846Z,27.58
2022-08-25T12:04:44.086Z,27.30
2022-08-25T12:05:38.836Z,27.07
2022-08-25T12:06:39.026Z,26.93
2022-08-25T12:07:38.797Z,26.88
2022-08-25T12:08:38.762Z,27.04
2022-08-25T12:09:38.801Z,27.07
2022-08-25T12:10:38.963Z,27.00
2022-08-25T12:11:38.895Z,26.92
2022-08-25T12:12:38.961Z,26.91
2022-08-25T12:13:38.789Z,26.88
2022-08-25T12:14:38.661Z,26.78
2022-08-25T12:15:38.651Z,26.60
2022-08-25T12:16:38.705Z,26.53
2022-08-25T12:17:39.474Z,26.59
2022-08-25T12:18:38.645Z,26.49
2022-08-25T12:19:38.615Z,26.37
2022-08-25T12:20:38.645Z,26.48
2022-08-25T12:21:38.796Z,26.29
2022-08-25T12:22:38.646Z,26.27
2022-08-25T12:23:44.617Z,26.34
2022-08-25T12:24:38.635Z,26.36
2022-08-25T12:25:38.786Z,26.27
2022-08-25T12:26:38.666Z,26.30
2022-08-25T12:27:38.817Z,26.42
2022-08-25T12:28:39.023Z,26.41
2022-08-25T12:29:38.501Z,26.39
2022-08-25T12:30:38.518Z,26.45
2022-08-25T12:31:38.491Z,26.39
2022-08-25T12:32:38.638Z,26.44
2022-08-25T12:33:38.562Z,26.49
2022-08-25T12:34:38.410Z,26.59
2022-08-25T12:35:38.471Z,26.67
2022-08-25T12:36:38.396Z,26.61
2022-08-25T12:37:38.485Z,26.64
2022-08-25T12:38:42.485Z,26.59
2022-08-25T12:39:38.407Z,26.53
2022-08-25T12:40:38.326Z,26.45
2022-08-25T12:41:38.326Z,26.39
2022-08-25T12:42:38.327Z,26.26
2022-08-25T12:43:38.486Z,26.27
2022-08-25T12:44:38.397Z,26.29
2022-08-25T12:45:38.311Z,26.37
2022-08-25T12:46:38.331Z,26.33
2022-08-25T12:47:41.854Z,26.30
2022-08-25T12:48:38.322Z,26.27
2022-08-25T12:49:38.482Z,26.23
2022-08-25T12:50:38.426Z,26.16
2022-08-25T12:51:38.202Z,26.10
2022-08-25T12:52:38.321Z,26.06